Airfield :







YOU CAN JOIN US ON...

 
LOGIN :

Register | Disclaimer

   EN    FR    IT 

 









Legend :    VFR   Marginal VFR   IFR   Intensive IFR   Very Intensive IFR
Visi :
Ceiling :
>= 8 km
>= 3000ft
5 to 8 km
1000 to 3000 ft
1500m to 5 km
500 to 1000 ft
800 to 1500m
200 to 500 ft
< 800m
< 200 ft
Symbols :   Thunderstorms  Fog  Heavy snow  Heavy precipitations  Wind > 20 kt







- Airport Elevation : 477 ft
- IATA code : YHZ


CYHZ - Halifax Stanfield Int.

CURRENT METAR :
  • 220200Z 23004KT 15SM SKC 09/07 A3016 RMK SLP216

EXPIRED METARs :
  • 220100Z 06004KT 15SM FEW260 12/07 A3015 RMK CI1 SLP212
  • 220000Z 08006KT 15SM FEW250 12/07 A3013 RMK CI1 CI TR SLP205
  • 212300Z 04004KT 15SM FEW250 13/07 A3012 RMK CS2 SLP203

TAF TAF CYHZ
Valid from the 22 at 00:00 until the 23 at 00:00 UTC


212341Z 2200/2224 04006KT P6SM FEW240
BECMG 2200/2202 VRB03KT
FM220800 20007KT P6SM SKC
BECMG 2211/2213 20010G20KT RMK NXT FCST BY 220300Z
No reported NOTAMs for that airfield.



MET'MAP, your aeronautical weather chart ! - Copyright ORBIFLY December 2007 - Disclaimer

ORBIFLY MET'MAP TEAM :

Programming & Development : Alexandra Zaïnal
Concept & Development : Baudouin d'Aumeries
Co-Development & Prog : Marc-Olivier Méhu
Technical & hardware support : Manuel Goepfert

Contact : metmap@orbifly.com




SOURCES & CREDITS :

   NOAA